createdAt,value
2023-01-11T00:02:37.248Z,88.07
2023-01-11T00:07:37.164Z,87.86
2023-01-11T00:12:37.519Z,87.51
2023-01-11T00:17:37.033Z,86.85
2023-01-11T00:22:36.931Z,86.43
2023-01-11T00:27:36.834Z,86.02
2023-01-11T00:32:36.851Z,86.02
2023-01-11T00:37:36.679Z,85.81
2023-01-11T00:42:36.688Z,86.12
2023-01-11T00:47:36.591Z,86.57
2023-01-11T00:52:36.547Z,86.12
2023-01-11T00:57:37.187Z,85.91
2023-01-11T01:02:36.434Z,85.60
2023-01-11T01:07:36.307Z,85.04
2023-01-11T01:12:36.281Z,84.11
2023-01-11T01:17:36.198Z,83.86
2023-01-11T01:22:36.315Z,83.34
2023-01-11T01:27:36.037Z,82.89
2023-01-11T01:32:35.976Z,82.79
2023-01-11T01:37:35.994Z,81.96
2023-01-11T01:42:36.473Z,81.96
2023-01-11T01:47:35.863Z,81.09
2023-01-11T01:52:35.735Z,80.68
2023-01-11T01:57:35.652Z,80.78
2023-01-11T02:02:35.687Z,80.57
2023-01-11T02:07:35.574Z,80.68
2023-01-11T02:12:35.517Z,81.13
2023-01-11T02:17:35.385Z,81.13
2023-01-11T02:22:35.401Z,81.23
2023-01-11T02:27:35.311Z,80.99
2023-01-11T02:32:36.653Z,80.99
2023-01-11T02:37:35.158Z,80.26
2023-01-11T02:42:35.119Z,80.26
2023-01-11T02:47:35.024Z,79.95
2023-01-11T02:52:34.953Z,80.16
2023-01-11T02:57:34.896Z,79.60
2023-01-11T03:02:34.814Z,79.91
2023-01-11T03:07:34.758Z,79.81
2023-01-11T03:12:34.727Z,80.12
2023-01-11T03:17:34.679Z,80.22
2023-01-11T03:22:34.636Z,79.91
2023-01-11T03:27:34.589Z,80.12
2023-01-11T03:32:34.421Z,80.12
2023-01-11T03:37:34.389Z,80.64
2023-01-11T03:42:34.309Z,80.19
2023-01-11T03:47:34.292Z,79.57
2023-01-11T03:52:34.201Z,79.57
2023-01-11T03:57:34.149Z,79.88
2023-01-11T04:02:34.049Z,79.57
2023-01-11T04:07:34.005Z,79.67
2023-01-11T04:12:33.941Z,79.26
2023-01-11T04:17:33.862Z,79.88
2023-01-11T04:22:33.800Z,79.57
2023-01-11T04:27:33.711Z,79.98
2023-01-11T04:32:33.684Z,79.26
2023-01-11T04:37:33.613Z,79.33
2023-01-11T04:42:33.531Z,78.81
2023-01-11T04:47:33.466Z,78.56
2023-01-11T04:52:33.398Z,78.25
2023-01-11T04:57:33.351Z,78.05
2023-01-11T05:02:33.276Z,78.05
2023-01-11T05:07:33.291Z,78.15
2023-01-11T05:12:33.131Z,78.01
2023-01-11T05:17:33.097Z,78.01
2023-01-11T05:22:33.017Z,77.15
2023-01-11T05:27:33.073Z,77.67
2023-01-11T05:32:32.879Z,78.08
2023-01-11T05:37:32.801Z,77.25
2023-01-11T05:42:34.066Z,77.04
2023-01-11T05:47:32.708Z,78.28
2023-01-11T05:52:32.608Z,77.77
2023-01-11T05:57:32.648Z,77.98
2023-01-11T06:02:32.624Z,77.87
2023-01-11T06:07:32.425Z,78.39
2023-01-11T06:12:32.342Z,78.49
2023-01-11T06:17:32.301Z,78.18
2023-01-11T06:22:32.249Z,78.39
2023-01-11T06:27:32.224Z,77.87
2023-01-11T06:32:32.139Z,78.05
2023-01-11T06:37:32.030Z,77.63
2023-01-11T06:42:32.001Z,77.73
2023-01-11T06:47:31.915Z,77.63
2023-01-11T06:52:31.820Z,78.18
2023-01-11T06:57:31.747Z,78.25
2023-01-11T07:02:31.760Z,78.66
2023-01-11T07:07:31.642Z,78.77
2023-01-11T07:12:31.607Z,78.05
2023-01-11T07:17:31.513Z,78.25
2023-01-11T07:22:31.463Z,77.53
2023-01-11T07:27:31.377Z,77.49
2023-01-11T07:32:31.303Z,78.63
2023-01-11T07:37:31.236Z,78.73
2023-01-11T07:42:31.187Z,78.01
2023-01-11T07:47:31.120Z,78.31
2023-01-11T07:52:31.098Z,78.42
2023-01-11T07:57:30.983Z,78.83
2023-01-11T08:02:31.049Z,78.63
2023-01-11T08:07:30.878Z,78.49
2023-01-11T08:12:30.794Z,78.14
2023-01-11T08:17:30.724Z,77.38
2023-01-11T08:22:30.650Z,76.56
2023-01-11T08:27:30.572Z,77.25
2023-01-11T08:32:30.526Z,77.14
2023-01-11T08:37:30.451Z,76.53
2023-01-11T08:42:30.412Z,76.63
2023-01-11T08:47:30.377Z,76.83
2023-01-11T08:52:30.364Z,76.83
2023-01-11T08:57:30.203Z,77.00
2023-01-11T09:02:30.186Z,77.00
2023-01-11T09:07:30.082Z,76.59
2023-01-11T09:12:30.029Z,76.45
2023-01-11T09:17:29.953Z,76.76
2023-01-11T09:22:29.881Z,76.35
2023-01-11T09:27:29.799Z,76.45
2023-01-11T09:32:29.721Z,77.17
2023-01-11T09:37:29.667Z,76.86
2023-01-11T09:42:29.624Z,76.52
2023-01-11T09:47:29.574Z,76.21
2023-01-11T09:52:29.484Z,76.73
2023-01-11T09:57:29.500Z,76.93
2023-01-11T10:02:29.380Z,77.03
2023-01-11T10:07:29.270Z,77.65
2023-01-11T10:18:38.957Z,77.65
2023-01-11T10:22:30.091Z,77.82
2023-01-11T10:27:29.008Z,77.20
2023-01-11T10:32:28.978Z,77.41
2023-01-11T10:37:28.858Z,77.41
2023-01-11T10:42:28.887Z,77.62
2023-01-11T10:47:28.764Z,77.31
2023-01-11T10:52:28.711Z,77.41
2023-01-11T10:57:28.640Z,77.68
2023-01-11T11:02:28.719Z,77.37
2023-01-11T11:07:28.476Z,77.95
2023-01-11T11:12:28.485Z,76.82
2023-01-11T11:17:28.421Z,77.10
2023-01-11T11:22:28.352Z,76.28
2023-01-11T11:27:28.239Z,76.58
2023-01-11T11:32:28.262Z,76.79
2023-01-11T11:37:28.153Z,77.20
2023-01-11T11:42:28.061Z,77.00
2023-01-11T11:47:27.987Z,76.89
2023-01-11T11:52:27.919Z,77.13
2023-01-11T11:57:28.529Z,77.40
2023-01-11T12:02:28.102Z,77.71
2023-01-11T12:07:27.703Z,77.30
2023-01-11T12:12:29.517Z,78.23
2023-01-11T12:17:27.651Z,78.12
2023-01-11T12:22:27.550Z,77.81
2023-01-11T12:27:27.480Z,77.81
2023-01-11T12:32:27.412Z,78.33
2023-01-11T12:37:27.369Z,78.43
2023-01-11T12:42:27.345Z,77.98
2023-01-11T12:47:27.270Z,77.71
2023-01-11T12:52:29.120Z,78.02
2023-01-11T12:57:27.128Z,78.53
2023-01-11T13:02:28.020Z,78.74
2023-01-11T13:07:26.966Z,79.36
2023-01-11T13:12:26.893Z,79.25
2023-01-11T13:17:26.847Z,79.25
2023-01-11T13:22:27.128Z,79.36
2023-01-11T13:27:26.767Z,79.66
2023-01-11T13:32:26.638Z,80.28
2023-01-11T13:37:28.273Z,81.00
2023-01-11T13:42:26.589Z,81.20
2023-01-11T13:47:26.476Z,81.82
2023-01-11T13:52:26.399Z,81.57
2023-01-11T13:57:26.345Z,81.68
2023-01-11T14:02:26.273Z,82.09
2023-01-11T14:07:26.311Z,82.50
2023-01-11T14:12:26.127Z,82.77
2023-01-11T14:17:26.173Z,83.28
2023-01-11T14:22:26.003Z,82.67
2023-01-11T14:27:26.014Z,83.22
2023-01-11T14:32:25.907Z,84.25
2023-01-11T14:37:25.843Z,85.62
2023-01-11T14:42:32.029Z,85.93
2023-01-11T14:47:26.680Z,87.05
2023-01-11T14:52:38.502Z,86.85
2023-01-11T14:57:26.588Z,87.61
2023-01-11T15:02:25.507Z,88.06
2023-01-11T15:07:25.530Z,88.23
2023-01-11T15:12:25.376Z,89.19
2023-01-11T15:17:25.371Z,89.15
2023-01-11T15:22:25.251Z,89.46
2023-01-11T15:27:25.204Z,89.66
2023-01-11T15:32:25.146Z,89.46
2023-01-11T15:37:25.050Z,89.76
2023-01-11T15:42:25.014Z,90.94
2023-01-11T15:47:24.911Z,91.86
2023-01-11T15:52:24.963Z,92.07
2023-01-11T15:57:24.805Z,92.69
2023-01-11T16:02:24.720Z,93.76
2023-01-11T16:07:24.682Z,93.96
2023-01-11T16:12:24.637Z,94.27
2023-01-11T16:17:24.590Z,94.89
2023-01-11T16:22:24.816Z,95.25
2023-01-11T16:27:24.449Z,95.36
2023-01-11T16:32:24.396Z,95.05
2023-01-11T16:37:24.309Z,95.15
2023-01-11T16:42:24.258Z,96.69
2023-01-11T16:47:24.176Z,97.10
2023-01-11T16:52:24.152Z,97.67
2023-01-11T16:57:24.781Z,98.29
2023-01-11T17:02:24.051Z,98.14
2023-01-11T17:07:23.951Z,97.28
2023-01-11T17:12:23.887Z,96.51
2023-01-11T17:17:23.879Z,95.59
2023-01-11T17:22:23.834Z,96.06
2023-01-11T17:27:23.687Z,94.32
2023-01-11T17:32:23.593Z,94.11
2023-01-11T17:37:24.783Z,94.01
2023-01-11T17:42:23.513Z,94.11
2023-01-11T17:47:23.535Z,94.32
2023-01-11T17:52:23.417Z,94.62
2023-01-11T17:57:23.329Z,94.42
2023-01-11T18:02:23.408Z,94.62
2023-01-11T18:07:23.443Z,94.48
2023-01-11T18:12:23.148Z,94.27
2023-01-11T18:17:24.604Z,94.54
2023-01-11T18:22:22.940Z,93.71
2023-01-11T18:27:22.834Z,93.20
2023-01-11T18:32:22.880Z,93.51
2023-01-11T18:37:24.880Z,93.62
2023-01-11T18:42:22.803Z,92.49
2023-01-11T18:47:23.375Z,92.24
2023-01-11T18:52:22.581Z,92.14
2023-01-11T18:57:22.398Z,91.22
2023-01-11T19:02:22.498Z,92.38
2023-01-11T19:07:22.307Z,92.24
2023-01-11T19:12:22.655Z,91.36
2023-01-11T19:17:22.428Z,92.34
2023-01-11T19:22:24.634Z,90.75
2023-01-11T19:27:22.034Z,90.39
2023-01-11T19:32:22.856Z,89.37
2023-01-11T19:37:22.490Z,89.03
2023-01-11T19:42:22.082Z,89.23
2023-01-11T19:47:21.948Z,88.51
2023-01-11T19:52:24.373Z,89.27
2023-01-11T19:57:21.683Z,89.00
2023-01-11T20:02:21.691Z,90.64
2023-01-11T20:07:21.924Z,89.72
2023-01-11T20:12:21.515Z,90.79
2023-01-11T20:17:21.666Z,90.37
2023-01-11T20:22:21.337Z,89.66
2023-01-11T20:27:21.233Z,89.45
2023-01-11T20:32:40.982Z,90.93
2023-01-11T20:37:22.065Z,89.70
2023-01-11T20:42:21.089Z,89.84
2023-01-11T20:47:21.023Z,90.16
2023-01-11T20:52:20.943Z,90.97
2023-01-11T20:57:20.859Z,89.23
2023-01-11T21:02:20.887Z,90.77
2023-01-11T21:07:20.763Z,89.33
2023-01-11T21:12:20.691Z,89.37
2023-01-11T21:17:20.568Z,90.30
2023-01-11T21:22:20.555Z,90.97
2023-01-11T21:27:20.589Z,89.89
2023-01-11T21:32:20.414Z,90.36
2023-01-11T21:37:20.623Z,88.82
2023-01-11T21:42:20.979Z,88.64
2023-01-11T21:47:20.308Z,87.34
2023-01-11T21:52:20.182Z,87.08
2023-01-11T21:57:20.143Z,85.19
2023-01-11T22:02:20.059Z,86.36
2023-01-11T22:07:19.938Z,85.06
2023-01-11T22:12:20.003Z,84.25
2023-01-11T22:17:19.831Z,85.89
2023-01-11T22:22:19.751Z,84.14
2023-01-11T22:27:19.726Z,83.67
2023-01-11T22:32:19.663Z,85.35
2023-01-11T22:37:19.559Z,85.60
2023-01-11T22:42:19.609Z,85.22
2023-01-11T22:47:19.401Z,85.33
2023-01-11T22:52:19.397Z,86.23
2023-01-11T22:57:19.318Z,86.40
2023-01-11T23:02:19.271Z,87.26
2023-01-11T23:07:19.227Z,86.99
2023-01-11T23:12:19.075Z,87.34
2023-01-11T23:17:19.071Z,87.96
2023-01-11T23:22:19.110Z,87.85
2023-01-11T23:27:18.953Z,88.10
2023-01-11T23:32:18.921Z,88.96
2023-01-11T23:37:18.792Z,88.86
2023-01-11T23:42:18.726Z,88.80
2023-01-11T23:47:18.731Z,89.87
2023-01-11T23:52:18.668Z,89.52
2023-01-11T23:57:18.523Z,89.15
